Yamaguchi, Japan

7:48 PM JST on September 18, 2014 (GMT +0900)
Yamaguchi-Ube | Change Station
CLOSE
Current Station
Airport
Location: Yamaguchi Ube,
Elevation: 26 ft
Nearby Weather Stations

Elev 26 ft 33.93 °N, 131.28 °E | Updated 48 minutes ago

Partly Cloudy
Partly Cloudy
72 °F
Feels Like 72 °F
N
8
Wind Variable Wind from NNE

Today
High -- | Low -- °F
--% Chance of Precip.
Yesterday
High -- | Low -- °F
Precip. -- in
5:59 AM 6:17 PM
Waning Crescent, 28% visible
Pressure 29.95 in
Visibility 6.2 miles
Clouds Few 3500 ft
Dew Point 57 °F
Humidity 60%
Rainfall 0.00 in
Snow Depth Not available.
UV 0 out of 12
Pollen Not available.
Air Quality Not available.
Flu Activity Not available.
METAR RJDC 181000Z 02007KT 9999 FEW035 BKN/// 22/14 Q1014

More Conditions Fewer Conditions

Pressure 29.95 in
Visibility 6.2 miles
Clouds Few 3500 ft
Dew Point 57 °F
Humidity 60%
Rainfall 0.00 in
Snow Depth Not available.
UV 0 out of 12
Pollen Not available.
Air Quality Not available.
Flu Activity Not available.
METAR RJDC 181000Z 02007KT 9999 FEW035 BKN/// 22/14 Q1014

More Conditions Fewer Conditions

10-Day Weather Forecast

Almanac

Astronomy

Sep. 18, 2014 Rise Set
Actual Time 5:59 AM JST 6:17 PM JST
Civil Twilight 5:34 AM JST 6:42 PM JST
Nautical Twilight 5:04 AM JST 7:11 PM JST
Astronomical Twilight 4:34 AM JST 7:41 PM JST
Moon 12:29 AM JST 2:33 PM JST
Length of Visible Light 13h 08m
Length of Day
12h 18m
Tomorrow will be 2m 6s shorter.
Waning Crescent, 28% of the Moon is Illuminated
Today
Waning Crescent
Sep 24
New
Oct 1
First Quarter
Oct 8
Full
Oct 15
Last Quarter

Yesterday's Extremes

Country Highs Country Lows

Community

WunderPhotos

Upload Photos

1,754,314 photos uploaded!

Nearby

Snow Depth

Not available.

Earthquake Activity

City Distance Mag. Time & Date
No recent earthquake activity has been reported nearby.
Minimum magnitude displayed is 2.5.

Coastal Water Temperatures

Place Temperature
No Stations Reporting

Nearby Weather Stations